createdAt,value
2023-12-19T00:01:01.681Z,15.00
2023-12-19T00:03:28.857Z,15.77
2023-12-19T00:05:55.954Z,15.67
2023-12-19T00:08:23.009Z,16.43
2023-12-19T00:10:50.005Z,15.83
2023-12-19T00:13:17.840Z,15.57
2023-12-19T00:15:45.078Z,15.37
2023-12-19T00:18:12.327Z,15.83
2023-12-19T00:20:39.848Z,16.50
2023-12-19T00:23:06.879Z,14.93
2023-12-19T00:25:33.819Z,15.20
2023-12-19T00:28:01.705Z,15.57
2023-12-19T00:30:28.914Z,15.80
2023-12-19T00:32:56.756Z,16.13
2023-12-19T00:35:24.135Z,15.33
2023-12-19T00:37:51.158Z,15.37
2023-12-19T00:40:18.099Z,14.63
2023-12-19T00:42:45.330Z,14.73
2023-12-19T00:45:12.637Z,14.93
2023-12-19T00:47:40.549Z,14.50
2023-12-19T00:50:09.345Z,15.43
2023-12-19T00:52:37.150Z,14.67
2023-12-19T00:56:48.602Z,15.10
2023-12-19T00:59:16.073Z,14.43
2023-12-19T01:01:43.005Z,14.87
2023-12-19T01:04:10.659Z,15.67
2023-12-19T01:06:38.120Z,14.70
2023-12-19T01:09:06.350Z,15.37
2023-12-19T01:11:33.433Z,14.57
2023-12-19T01:14:00.423Z,15.03
2023-12-19T01:16:27.483Z,15.37
2023-12-19T01:18:55.000Z,16.40
2023-12-19T01:21:22.258Z,17.20
2023-12-19T01:23:49.281Z,16.07
2023-12-19T01:26:20.447Z,15.47
2023-12-19T01:28:51.998Z,15.13
2023-12-19T01:31:19.101Z,14.90
2023-12-19T01:33:46.288Z,15.43
2023-12-19T01:36:13.303Z,15.50
2023-12-19T01:38:40.247Z,15.70
2023-12-19T01:41:07.346Z,15.90
2023-12-19T01:43:34.281Z,15.53
2023-12-19T01:46:01.334Z,15.20
2023-12-19T01:48:29.502Z,17.27
2023-12-19T01:50:56.883Z,15.23
2023-12-19T01:53:25.370Z,16.93
2023-12-19T01:55:55.839Z,16.00
2023-12-19T01:58:24.382Z,15.47
2023-12-19T02:00:52.620Z,15.80
2023-12-19T02:03:21.362Z,15.43
2023-12-19T02:05:52.313Z,16.03
2023-12-19T02:08:19.688Z,15.93
2023-12-19T02:10:46.868Z,16.00
2023-12-19T02:13:13.989Z,15.83
2023-12-19T02:15:41.018Z,15.17
2023-12-19T02:18:19.656Z,15.47
2023-12-19T02:20:46.865Z,15.40
2023-12-19T02:23:17.487Z,14.93
2023-12-19T02:25:44.768Z,14.70
2023-12-19T02:28:11.839Z,14.20
2023-12-19T02:30:41.948Z,15.60
2023-12-19T02:33:10.466Z,14.83
2023-12-19T02:35:37.449Z,13.90
2023-12-19T02:38:04.566Z,14.53
2023-12-19T02:40:31.768Z,14.37
2023-12-19T02:42:58.761Z,13.87
2023-12-19T02:45:26.052Z,14.03
2023-12-19T02:47:53.405Z,13.30
2023-12-19T02:50:20.551Z,14.77
2023-12-19T02:52:47.518Z,13.67
2023-12-19T02:55:14.522Z,14.00
2023-12-19T02:57:41.525Z,14.03
2023-12-19T03:00:09.350Z,14.40
2023-12-19T03:02:36.382Z,13.90
2023-12-19T03:05:03.552Z,14.13
2023-12-19T03:07:30.639Z,13.63
2023-12-19T03:09:57.618Z,14.30
2023-12-19T03:12:24.677Z,12.97
2023-12-19T03:14:51.751Z,12.23
2023-12-19T03:17:19.301Z,13.87
2023-12-19T03:19:46.570Z,13.30
2023-12-19T03:22:14.098Z,12.87
2023-12-19T03:24:41.245Z,13.00
2023-12-19T03:27:08.328Z,12.93
2023-12-19T03:29:35.628Z,11.53
2023-12-19T03:32:02.539Z,12.10
2023-12-19T03:34:29.638Z,11.90
2023-12-19T03:36:57.937Z,10.93
2023-12-19T03:39:25.271Z,11.53
2023-12-19T03:42:10.617Z,12.10
2023-12-19T03:44:43.018Z,11.87
2023-12-19T03:47:13.386Z,12.13
2023-12-19T03:49:41.466Z,11.30
2023-12-19T03:52:10.387Z,12.17
2023-12-19T03:54:37.747Z,12.10
2023-12-19T03:57:05.076Z,11.77
2023-12-19T03:59:32.063Z,12.43
2023-12-19T04:02:00.545Z,13.13
2023-12-19T04:04:27.870Z,14.87
2023-12-19T04:06:54.975Z,14.20
2023-12-19T04:09:23.222Z,14.03
2023-12-19T04:11:50.627Z,16.00
2023-12-19T04:14:18.477Z,16.90
2023-12-19T04:16:45.477Z,16.93
2023-12-19T04:19:12.847Z,16.27
2023-12-19T04:21:42.579Z,17.07
2023-12-19T04:24:11.603Z,16.80
2023-12-19T04:26:38.538Z,17.47
2023-12-19T04:29:05.553Z,17.07
2023-12-19T04:31:33.439Z,16.70
2023-12-19T04:34:00.789Z,17.23
2023-12-19T04:36:27.967Z,17.10
2023-12-19T04:38:55.231Z,17.60
2023-12-19T04:41:22.272Z,16.80
2023-12-19T04:43:49.197Z,17.57
2023-12-19T04:46:16.259Z,18.13
2023-12-19T04:48:44.414Z,17.00
2023-12-19T04:51:23.396Z,17.07
2023-12-19T04:53:50.829Z,16.53
2023-12-19T04:56:18.342Z,16.30
2023-12-19T04:58:47.472Z,16.47
2023-12-19T05:01:15.072Z,15.93
2023-12-19T05:03:43.375Z,15.27
2023-12-19T05:06:18.308Z,15.50
2023-12-19T05:08:46.389Z,14.57
2023-12-19T05:11:13.588Z,16.43
2023-12-19T05:13:41.201Z,16.70
2023-12-19T05:16:16.123Z,16.07
2023-12-19T05:18:44.884Z,16.60
2023-12-19T05:21:13.366Z,16.27
2023-12-19T05:23:41.619Z,16.90
2023-12-19T05:26:10.017Z,17.23
2023-12-19T05:28:40.129Z,17.40
2023-12-19T05:31:09.506Z,16.47
2023-12-19T05:33:37.107Z,17.33
2023-12-19T05:36:04.627Z,17.33
2023-12-19T05:38:34.627Z,16.60
2023-12-19T05:41:02.974Z,16.00
2023-12-19T05:43:29.933Z,16.70
2023-12-19T05:45:57.193Z,15.77
2023-12-19T05:48:24.996Z,16.53
2023-12-19T05:50:53.335Z,16.13
2023-12-19T05:53:20.950Z,15.87
2023-12-19T05:55:48.711Z,15.50
2023-12-19T05:58:15.902Z,16.63
2023-12-19T06:00:46.031Z,15.90
2023-12-19T06:03:13.304Z,14.93
2023-12-19T06:05:40.465Z,15.77
2023-12-19T06:08:08.822Z,14.17
2023-12-19T06:10:35.858Z,15.97
2023-12-19T06:13:02.984Z,14.03
2023-12-19T06:15:30.123Z,13.87
2023-12-19T06:17:57.565Z,14.70
2023-12-19T06:20:24.575Z,14.33
2023-12-19T06:22:51.602Z,13.63
2023-12-19T06:25:18.678Z,13.27
2023-12-19T06:27:45.872Z,13.50
2023-12-19T06:30:22.817Z,12.90
2023-12-19T06:32:55.188Z,13.13
2023-12-19T06:35:22.779Z,14.30
2023-12-19T06:37:50.049Z,12.37
2023-12-19T06:40:18.269Z,12.93
2023-12-19T06:42:45.937Z,12.43
2023-12-19T06:45:14.103Z,12.43
2023-12-19T06:47:41.446Z,12.10
2023-12-19T06:50:09.359Z,13.10
2023-12-19T06:52:36.357Z,12.57
2023-12-19T06:55:03.704Z,13.17
2023-12-19T06:57:30.797Z,12.13
2023-12-19T06:59:57.786Z,12.00
2023-12-19T07:02:24.746Z,11.60
2023-12-19T07:04:51.700Z,11.13
2023-12-19T07:07:18.659Z,12.00
2023-12-19T07:09:45.577Z,12.40
2023-12-19T07:12:12.557Z,12.07
2023-12-19T07:14:39.890Z,12.37
2023-12-19T07:17:07.059Z,11.30
2023-12-19T07:19:35.329Z,11.53
2023-12-19T07:22:02.685Z,11.37
2023-12-19T07:24:30.454Z,11.10
2023-12-19T07:26:58.758Z,12.40
2023-12-19T07:29:25.727Z,11.27
2023-12-19T07:31:53.250Z,11.20
2023-12-19T07:34:20.524Z,11.07
2023-12-19T07:36:47.787Z,10.90
2023-12-19T07:39:14.804Z,9.90
2023-12-19T07:41:42.035Z,10.20
2023-12-19T07:44:11.899Z,9.87
2023-12-19T07:46:43.007Z,10.53
2023-12-19T07:49:12.344Z,11.10
2023-12-19T07:51:39.672Z,10.50
2023-12-19T07:54:07.438Z,9.33
2023-12-19T07:56:34.742Z,9.70
2023-12-19T07:59:02.092Z,9.77
2023-12-19T08:01:29.539Z,9.30
2023-12-19T08:03:56.582Z,9.90
2023-12-19T08:06:23.739Z,9.83
2023-12-19T08:08:52.661Z,10.63
2023-12-19T08:11:20.323Z,9.47
2023-12-19T08:13:49.542Z,9.50
2023-12-19T08:16:16.617Z,9.73
2023-12-19T08:18:43.844Z,9.73
2023-12-19T08:21:10.966Z,10.63
2023-12-19T08:23:38.270Z,9.50
2023-12-19T08:26:11.048Z,8.83
2023-12-19T08:28:38.336Z,9.50
2023-12-19T08:31:05.426Z,9.23
2023-12-19T08:33:32.450Z,8.87
2023-12-19T08:35:59.530Z,9.87
2023-12-19T08:38:26.594Z,8.93
2023-12-19T08:40:53.519Z,10.07
2023-12-19T08:43:21.484Z,9.30
2023-12-19T08:45:49.493Z,8.43
2023-12-19T08:48:19.319Z,9.80
2023-12-19T08:50:46.898Z,9.90
2023-12-19T08:53:14.201Z,9.43
2023-12-19T08:55:43.460Z,8.67
2023-12-19T08:58:10.808Z,8.97
2023-12-19T09:00:39.093Z,8.63
2023-12-19T09:03:07.120Z,9.00
2023-12-19T09:05:35.169Z,8.93
2023-12-19T09:08:02.414Z,9.27
2023-12-19T09:10:31.380Z,8.77
2023-12-19T09:12:59.257Z,8.43
2023-12-19T09:15:26.478Z,8.17
2023-12-19T09:17:53.800Z,8.30
2023-12-19T09:20:22.795Z,8.73
2023-12-19T09:22:50.569Z,7.23
2023-12-19T09:25:18.166Z,6.83
2023-12-19T09:27:46.884Z,7.23
2023-12-19T09:30:17.137Z,7.13
2023-12-19T09:32:44.883Z,6.60
2023-12-19T09:35:12.800Z,6.20
2023-12-19T09:37:40.060Z,6.33
2023-12-19T09:40:20.013Z,5.93
2023-12-19T09:42:47.476Z,6.37
2023-12-19T09:45:16.475Z,5.73
2023-12-19T09:47:59.175Z,5.93
2023-12-19T09:50:28.718Z,5.67
2023-12-19T09:52:59.875Z,5.33
2023-12-19T09:55:30.452Z,5.47
2023-12-19T09:57:59.522Z,5.20
2023-12-19T10:00:27.967Z,4.83
2023-12-19T10:02:56.867Z,5.07
2023-12-19T10:05:23.971Z,5.00
2023-12-19T10:07:51.060Z,5.53
2023-12-19T10:10:19.376Z,5.80
2023-12-19T10:15:21.605Z,5.57
2023-12-19T10:18:04.873Z,5.37
2023-12-19T10:20:33.119Z,5.90
2023-12-19T10:23:08.161Z,5.77
2023-12-19T10:25:43.139Z,6.50
2023-12-19T10:28:14.975Z,5.57
2023-12-19T10:30:44.663Z,5.73
2023-12-19T10:33:14.269Z,5.70
2023-12-19T10:35:46.597Z,6.00
2023-12-19T10:38:13.932Z,5.67
2023-12-19T10:40:41.055Z,5.90
2023-12-19T10:43:08.318Z,5.60
2023-12-19T10:45:38.266Z,5.77
2023-12-19T10:48:06.451Z,6.60
2023-12-19T10:50:33.912Z,6.50
2023-12-19T10:53:07.331Z,6.33
2023-12-19T10:55:47.488Z,5.90
2023-12-19T10:58:22.106Z,6.20
2023-12-19T11:00:53.340Z,6.00
2023-12-19T11:03:42.834Z,6.40
2023-12-19T11:06:15.898Z,6.60
2023-12-19T11:08:49.731Z,6.83
2023-12-19T11:11:37.362Z,5.73
2023-12-19T11:14:08.328Z,5.30
2023-12-19T11:16:44.113Z,5.53
2023-12-19T11:19:39.327Z,5.50
2023-12-19T11:22:32.325Z,5.17
2023-12-19T11:25:30.886Z,4.87
2023-12-19T11:28:06.361Z,4.70
2023-12-19T11:30:34.475Z,5.00
2023-12-19T11:33:01.703Z,4.63
2023-12-19T11:35:31.112Z,4.87
2023-12-19T11:38:16.485Z,4.53
2023-12-19T11:40:47.259Z,4.80
2023-12-19T11:43:29.591Z,4.67
2023-12-19T11:46:06.246Z,4.43
2023-12-19T11:48:42.044Z,4.43
2023-12-19T11:51:11.029Z,5.00
2023-12-19T11:53:39.791Z,4.73
2023-12-19T11:56:14.711Z,4.20
2023-12-19T11:58:53.852Z,5.20
2023-12-19T12:01:22.052Z,4.40
2023-12-19T12:03:49.354Z,3.43
2023-12-19T12:06:22.536Z,4.30
2023-12-19T12:08:56.047Z,3.70
2023-12-19T12:11:23.157Z,4.13
2023-12-19T12:14:04.859Z,4.03
2023-12-19T12:16:39.859Z,3.90
2023-12-19T12:19:22.510Z,4.13
2023-12-19T12:21:52.387Z,3.70
2023-12-19T12:24:31.081Z,3.90
2023-12-19T12:27:10.969Z,4.17
2023-12-19T12:29:39.270Z,4.13
2023-12-19T12:32:08.675Z,3.80
2023-12-19T12:34:35.720Z,3.77
2023-12-19T12:37:03.092Z,3.47
2023-12-19T12:39:30.219Z,4.47
2023-12-19T12:42:08.215Z,3.97
2023-12-19T12:44:35.548Z,4.33
2023-12-19T12:47:06.641Z,4.40
2023-12-19T12:49:34.188Z,4.03
2023-12-19T12:52:01.477Z,4.03
2023-12-19T12:54:30.228Z,3.50
2023-12-19T12:56:57.803Z,3.87
2023-12-19T12:59:30.024Z,4.30
2023-12-19T13:01:57.326Z,3.63
2023-12-19T13:04:25.194Z,3.80
2023-12-19T13:06:52.339Z,4.10
2023-12-19T13:09:22.301Z,3.60
2023-12-19T13:11:51.831Z,4.00
2023-12-19T13:14:19.122Z,4.73
2023-12-19T13:16:46.434Z,3.87
2023-12-19T13:19:15.879Z,4.53
2023-12-19T13:21:43.245Z,4.10
2023-12-19T13:24:10.359Z,3.90
2023-12-19T13:26:37.425Z,3.97
2023-12-19T13:29:04.501Z,3.87
2023-12-19T13:31:33.370Z,4.37
2023-12-19T13:34:01.977Z,4.20
2023-12-19T13:36:29.232Z,4.20
2023-12-19T13:38:57.718Z,3.97
2023-12-19T13:41:24.858Z,4.17
2023-12-19T13:43:51.845Z,4.57
2023-12-19T13:46:19.020Z,4.60
2023-12-19T13:48:46.126Z,4.53
2023-12-19T13:51:13.183Z,4.80
2023-12-19T13:53:41.624Z,4.50
2023-12-19T13:56:09.139Z,4.83
2023-12-19T13:58:36.195Z,4.47
2023-12-19T14:01:04.138Z,4.70
2023-12-19T14:03:31.375Z,4.57
2023-12-19T14:05:59.771Z,4.20
2023-12-19T14:08:26.936Z,4.23
2023-12-19T14:10:53.951Z,4.47
2023-12-19T14:13:21.097Z,4.70
2023-12-19T14:15:54.808Z,4.67
2023-12-19T14:18:22.473Z,4.97
2023-12-19T14:20:49.668Z,4.67
2023-12-19T14:23:16.841Z,4.97
2023-12-19T14:25:44.099Z,5.27
2023-12-19T14:28:12.283Z,5.10
2023-12-19T14:30:39.952Z,5.10
2023-12-19T14:33:08.260Z,5.30
2023-12-19T14:35:36.382Z,4.23
2023-12-19T14:38:04.699Z,5.07
2023-12-19T14:40:31.719Z,4.60
2023-12-19T14:42:58.738Z,5.63
2023-12-19T14:45:25.628Z,5.40
2023-12-19T14:47:52.610Z,5.20
2023-12-19T14:50:21.272Z,5.00
2023-12-19T14:52:48.366Z,4.30
2023-12-19T14:55:15.528Z,4.70
2023-12-19T14:57:43.320Z,4.90
2023-12-19T15:00:11.972Z,5.40
2023-12-19T15:02:39.299Z,4.83
2023-12-19T15:05:07.031Z,4.37
2023-12-19T15:07:34.077Z,4.90
2023-12-19T15:10:01.351Z,4.43
2023-12-19T15:12:28.404Z,4.90
2023-12-19T15:14:55.421Z,4.83
2023-12-19T15:17:22.537Z,5.03
2023-12-19T15:19:49.660Z,5.07
2023-12-19T15:22:17.792Z,5.33
2023-12-19T15:24:44.781Z,4.93
2023-12-19T15:27:13.588Z,4.83
2023-12-19T15:29:40.662Z,5.67
2023-12-19T15:32:07.832Z,6.10
2023-12-19T15:34:35.987Z,5.50
2023-12-19T15:37:03.765Z,5.87
2023-12-19T15:39:31.045Z,5.63
2023-12-19T15:41:58.541Z,5.80
2023-12-19T15:44:25.570Z,5.60
2023-12-19T15:46:52.609Z,5.33
2023-12-19T15:49:19.658Z,5.20
2023-12-19T15:51:46.813Z,4.77
2023-12-19T15:54:18.064Z,5.87
2023-12-19T15:56:45.857Z,5.40
2023-12-19T15:59:13.077Z,5.70
2023-12-19T16:01:40.637Z,5.37
2023-12-19T16:04:09.397Z,6.50
2023-12-19T16:06:38.702Z,6.00
2023-12-19T16:09:06.019Z,5.93
2023-12-19T16:11:33.068Z,5.00
2023-12-19T16:14:00.177Z,5.77
2023-12-19T16:16:27.298Z,5.60
2023-12-19T16:18:54.631Z,5.93
2023-12-19T16:21:22.503Z,6.27
2023-12-19T16:24:00.286Z,6.17
2023-12-19T16:26:32.223Z,6.87
2023-12-19T16:29:00.002Z,6.63
2023-12-19T16:31:28.178Z,6.47
2023-12-19T16:33:55.469Z,6.20
2023-12-19T16:36:23.113Z,6.87
2023-12-19T16:38:51.885Z,6.80
2023-12-19T16:41:22.601Z,6.60
2023-12-19T16:43:50.872Z,6.67
2023-12-19T16:46:23.088Z,6.23
2023-12-19T16:48:54.079Z,6.87
2023-12-19T16:51:21.767Z,6.10
2023-12-19T16:53:48.975Z,6.10
2023-12-19T16:56:16.085Z,5.53
2023-12-19T16:58:46.233Z,5.87
2023-12-19T17:01:15.165Z,6.00
2023-12-19T17:03:45.666Z,5.83
2023-12-19T17:06:12.860Z,6.40
2023-12-19T17:08:40.016Z,6.03
2023-12-19T17:11:08.677Z,5.83
2023-12-19T17:13:36.639Z,5.53
2023-12-19T17:16:04.052Z,6.20
2023-12-19T17:18:31.425Z,6.60
2023-12-19T17:20:58.672Z,6.83
2023-12-19T17:23:33.565Z,6.97
2023-12-19T17:26:07.432Z,6.67
2023-12-19T17:28:34.384Z,7.47
2023-12-19T17:31:02.726Z,7.23
2023-12-19T17:33:29.962Z,7.03
2023-12-19T17:35:56.921Z,8.30
2023-12-19T17:38:23.876Z,8.77
2023-12-19T17:40:50.992Z,8.77
2023-12-19T17:43:18.101Z,8.43
2023-12-19T17:45:45.162Z,9.07
2023-12-19T17:48:14.934Z,9.90
2023-12-19T17:50:42.500Z,9.23
2023-12-19T17:53:09.607Z,10.37
2023-12-19T17:55:36.742Z,10.23
2023-12-19T17:58:04.031Z,11.23
2023-12-19T18:00:31.354Z,11.20
2023-12-19T18:02:58.365Z,10.40
2023-12-19T18:05:26.863Z,11.03
2023-12-19T18:07:54.089Z,10.53
2023-12-19T18:10:21.292Z,11.67
2023-12-19T18:12:49.199Z,11.07
2023-12-19T18:15:16.752Z,12.43
2023-12-19T18:17:43.880Z,12.03
2023-12-19T18:20:11.357Z,10.97
2023-12-19T18:22:38.481Z,11.10
2023-12-19T18:25:07.282Z,11.30
2023-12-19T18:27:34.513Z,11.30
2023-12-19T18:30:03.922Z,11.60
2023-12-19T18:32:32.757Z,11.37
2023-12-19T18:34:59.831Z,10.43
2023-12-19T18:37:26.797Z,10.63
2023-12-19T18:39:53.760Z,10.63
2023-12-19T18:42:20.823Z,11.50
2023-12-19T18:44:47.761Z,10.90
2023-12-19T18:47:14.957Z,11.47
2023-12-19T18:49:41.859Z,11.43
2023-12-19T18:52:08.900Z,11.30
2023-12-19T18:54:35.890Z,10.70
2023-12-19T18:57:03.321Z,12.27
2023-12-19T18:59:30.785Z,12.80
2023-12-19T19:01:58.129Z,12.53
2023-12-19T19:04:25.323Z,12.73
2023-12-19T19:06:52.409Z,12.57
2023-12-19T19:09:19.430Z,13.10
2023-12-19T19:11:47.127Z,13.47
2023-12-19T19:14:14.720Z,12.80
2023-12-19T19:16:41.770Z,12.57
2023-12-19T19:19:09.062Z,12.03
2023-12-19T19:21:37.519Z,11.90
2023-12-19T19:24:05.066Z,12.53
2023-12-19T19:26:32.179Z,12.23
2023-12-19T19:29:00.799Z,12.60
2023-12-19T19:31:27.882Z,12.77
2023-12-19T19:34:30.687Z,11.90
2023-12-19T19:37:00.391Z,11.57
2023-12-19T19:39:31.436Z,12.30
2023-12-19T19:41:58.984Z,12.93
2023-12-19T19:44:26.346Z,12.97
2023-12-19T19:46:53.426Z,12.33
2023-12-19T19:49:21.677Z,13.03
2023-12-19T19:51:49.815Z,12.43
2023-12-19T19:54:20.759Z,12.37
2023-12-19T19:56:47.943Z,11.20
2023-12-19T19:59:58.837Z,12.57
2023-12-19T20:02:16.899Z,11.10
2023-12-19T20:04:43.987Z,11.57
2023-12-19T20:07:11.354Z,11.87
2023-12-19T20:09:38.440Z,11.67
2023-12-19T20:12:06.490Z,11.77
2023-12-19T20:14:33.546Z,11.23
2023-12-19T20:17:03.230Z,12.77
2023-12-19T20:19:30.368Z,12.23
2023-12-19T20:21:57.433Z,12.53
2023-12-19T20:24:24.448Z,12.90
2023-12-19T20:26:51.409Z,12.77
2023-12-19T20:29:20.490Z,13.53
2023-12-19T20:31:47.661Z,12.87
2023-12-19T20:34:14.819Z,14.03
2023-12-19T20:36:41.916Z,13.67
2023-12-19T20:39:09.773Z,14.63
2023-12-19T20:41:38.431Z,14.30
2023-12-19T20:44:05.496Z,15.03
2023-12-19T20:46:32.670Z,15.27
2023-12-19T20:48:59.808Z,14.07
2023-12-19T20:51:26.856Z,14.87
2023-12-19T20:53:54.465Z,14.10
2023-12-19T20:56:23.426Z,14.70
2023-12-19T20:58:52.666Z,14.17
2023-12-19T21:01:20.103Z,14.50
2023-12-19T21:03:48.215Z,14.40
2023-12-19T21:06:16.012Z,14.70
2023-12-19T21:08:43.240Z,13.47
2023-12-19T21:11:10.297Z,13.97
2023-12-19T21:13:37.372Z,13.20
2023-12-19T21:16:04.805Z,12.80
2023-12-19T21:18:31.883Z,12.97
2023-12-19T21:20:59.280Z,12.90
2023-12-19T21:23:26.249Z,12.83
2023-12-19T21:25:53.329Z,11.47
2023-12-19T21:28:20.311Z,10.27
2023-12-19T21:30:47.433Z,10.37
2023-12-19T21:33:14.518Z,9.50
2023-12-19T21:35:41.565Z,8.67
2023-12-19T21:38:08.773Z,7.33
2023-12-19T21:40:40.117Z,6.87
2023-12-19T21:43:07.553Z,5.20
2023-12-19T21:45:35.141Z,4.57
2023-12-19T21:48:02.832Z,4.87
2023-12-19T21:50:30.263Z,4.80
2023-12-19T21:52:57.291Z,4.00
2023-12-19T21:55:26.640Z,4.27
2023-12-19T21:57:53.693Z,4.73
2023-12-19T22:00:21.828Z,3.90
2023-12-19T22:02:48.785Z,3.97
2023-12-19T22:05:15.788Z,4.53
2023-12-19T22:07:42.895Z,4.90
2023-12-19T22:10:10.441Z,4.80
2023-12-19T22:12:37.591Z,4.37
2023-12-19T22:15:06.206Z,4.60
2023-12-19T22:17:33.256Z,4.27
2023-12-19T22:20:01.240Z,4.27
2023-12-19T22:22:29.360Z,4.47
2023-12-19T22:24:56.654Z,4.33
2023-12-19T22:27:24.238Z,4.67
2023-12-19T22:29:51.381Z,4.93
2023-12-19T22:32:18.324Z,5.27
2023-12-19T22:34:45.386Z,5.03
2023-12-19T22:37:14.877Z,4.70
2023-12-19T22:39:42.057Z,4.33
2023-12-19T22:42:09.040Z,4.43
2023-12-19T22:44:36.142Z,4.27
2023-12-19T22:47:03.111Z,4.70
2023-12-19T22:49:32.635Z,5.00
2023-12-19T22:51:59.925Z,4.83
2023-12-19T22:54:26.974Z,4.53
2023-12-19T22:56:54.003Z,4.00
2023-12-19T22:59:21.033Z,4.83
2023-12-19T23:01:53.745Z,4.60
2023-12-19T23:04:22.167Z,4.40
2023-12-19T23:06:49.469Z,5.50
2023-12-19T23:09:16.523Z,5.07
2023-12-19T23:11:43.750Z,4.93
2023-12-19T23:14:11.410Z,5.07
2023-12-19T23:16:38.514Z,4.63
2023-12-19T23:19:05.984Z,5.07
2023-12-19T23:21:33.100Z,4.57
2023-12-19T23:24:00.128Z,4.20
2023-12-19T23:26:27.150Z,4.37
2023-12-19T23:28:54.163Z,4.20
2023-12-19T23:31:25.081Z,4.73
2023-12-19T23:33:57.145Z,4.30
2023-12-19T23:36:24.161Z,3.90
2023-12-19T23:38:51.100Z,3.97
2023-12-19T23:41:21.282Z,4.00
2023-12-19T23:43:48.382Z,3.70
2023-12-19T23:46:22.713Z,4.37
2023-12-19T23:48:51.120Z,3.73
2023-12-19T23:51:18.744Z,3.67
2023-12-19T23:53:47.258Z,3.30
2023-12-19T23:56:15.160Z,3.10
2023-12-19T23:58:42.086Z,3.00
